sensor_id;sensor_type;location;lat;lon;timestamp;P1;durP1;ratioP1;P2;durP2;ratioP2
297;SDS011;133;49.626;9.680;2023-04-16T00:01:04;7.13;;;5.87;;
297;SDS011;133;49.626;9.680;2023-04-16T00:03:30;10.37;;;6.27;;
297;SDS011;133;49.626;9.680;2023-04-16T00:05:56;6.50;;;5.43;;
297;SDS011;133;49.626;9.680;2023-04-16T00:08:22;6.67;;;5.47;;
297;SDS011;133;49.626;9.680;2023-04-16T00:10:48;5.23;;;4.67;;
297;SDS011;133;49.626;9.680;2023-04-16T00:13:15;5.70;;;5.43;;
297;SDS011;133;49.626;9.680;2023-04-16T00:15:40;5.57;;;5.27;;
297;SDS011;133;49.626;9.680;2023-04-16T00:18:06;6.13;;;5.83;;
297;SDS011;133;49.626;9.680;2023-04-16T00:20:32;5.40;;;5.10;;
297;SDS011;133;49.626;9.680;2023-04-16T00:22:57;6.57;;;5.63;;
297;SDS011;133;49.626;9.680;2023-04-16T00:25:23;5.20;;;4.90;;
297;SDS011;133;49.626;9.680;2023-04-16T00:27:48;6.47;;;5.60;;
297;SDS011;133;49.626;9.680;2023-04-16T00:30:14;6.93;;;5.40;;
297;SDS011;133;49.626;9.680;2023-04-16T00:32:40;7.57;;;6.67;;
297;SDS011;133;49.626;9.680;2023-04-16T00:35:06;8.30;;;7.30;;
297;SDS011;133;49.626;9.680;2023-04-16T00:37:32;10.23;;;6.20;;
297;SDS011;133;49.626;9.680;2023-04-16T00:39:57;6.87;;;5.70;;
297;SDS011;133;49.626;9.680;2023-04-16T00:42:23;7.67;;;5.93;;
297;SDS011;133;49.626;9.680;2023-04-16T00:44:49;7.97;;;6.43;;
297;SDS011;133;49.626;9.680;2023-04-16T00:47:14;8.60;;;7.10;;
297;SDS011;133;49.626;9.680;2023-04-16T00:49:40;7.80;;;6.23;;
297;SDS011;133;49.626;9.680;2023-04-16T00:52:06;9.53;;;7.00;;
297;SDS011;133;49.626;9.680;2023-04-16T00:54:32;6.07;;;5.70;;
297;SDS011;133;49.626;9.680;2023-04-16T00:56:58;7.43;;;6.30;;
297;SDS011;133;49.626;9.680;2023-04-16T00:59:24;7.27;;;6.07;;
297;SDS011;133;49.626;9.680;2023-04-16T01:01:50;5.03;;;4.77;;
297;SDS011;133;49.626;9.680;2023-04-16T01:04:16;6.30;;;5.93;;
297;SDS011;133;49.626;9.680;2023-04-16T01:06:41;6.40;;;6.03;;
297;SDS011;133;49.626;9.680;2023-04-16T01:09:08;6.53;;;6.13;;
297;SDS011;133;49.626;9.680;2023-04-16T01:11:35;6.63;;;5.67;;
297;SDS011;133;49.626;9.680;2023-04-16T01:14:02;6.90;;;6.10;;
297;SDS011;133;49.626;9.680;2023-04-16T01:16:27;7.10;;;5.80;;
297;SDS011;133;49.626;9.680;2023-04-16T01:18:53;6.90;;;5.80;;
297;SDS011;133;49.626;9.680;2023-04-16T01:21:18;9.50;;;5.97;;
297;SDS011;133;49.626;9.680;2023-04-16T01:23:44;6.80;;;6.30;;
297;SDS011;133;49.626;9.680;2023-04-16T01:26:10;7.00;;;5.83;;
297;SDS011;133;49.626;9.680;2023-04-16T01:28:35;5.40;;;4.90;;
297;SDS011;133;49.626;9.680;2023-04-16T01:31:01;6.70;;;5.50;;
297;SDS011;133;49.626;9.680;2023-04-16T01:33:27;7.30;;;5.63;;
297;SDS011;133;49.626;9.680;2023-04-16T01:35:52;6.67;;;5.00;;
297;SDS011;133;49.626;9.680;2023-04-16T01:38:18;6.00;;;4.63;;
297;SDS011;133;49.626;9.680;2023-04-16T01:40:44;7.30;;;4.83;;
297;SDS011;133;49.626;9.680;2023-04-16T01:43:09;6.07;;;5.20;;
297;SDS011;133;49.626;9.680;2023-04-16T01:45:35;6.40;;;5.17;;
297;SDS011;133;49.626;9.680;2023-04-16T01:48:01;5.53;;;4.97;;
297;SDS011;133;49.626;9.680;2023-04-16T01:50:28;5.23;;;4.67;;
297;SDS011;133;49.626;9.680;2023-04-16T01:52:54;6.07;;;4.93;;
297;SDS011;133;49.626;9.680;2023-04-16T01:55:20;7.50;;;5.80;;
297;SDS011;133;49.626;9.680;2023-04-16T01:57:46;9.37;;;6.53;;
297;SDS011;133;49.626;9.680;2023-04-16T02:00:11;8.20;;;5.90;;
297;SDS011;133;49.626;9.680;2023-04-16T02:02:37;5.10;;;4.83;;
297;SDS011;133;49.626;9.680;2023-04-16T02:05:03;6.60;;;5.80;;
297;SDS011;133;49.626;9.680;2023-04-16T02:07:29;6.23;;;5.60;;
297;SDS011;133;49.626;9.680;2023-04-16T02:09:55;8.50;;;6.30;;
297;SDS011;133;49.626;9.680;2023-04-16T02:12:22;6.27;;;5.00;;
297;SDS011;133;49.626;9.680;2023-04-16T02:14:47;6.97;;;5.87;;
297;SDS011;133;49.626;9.680;2023-04-16T02:17:13;5.53;;;4.97;;
297;SDS011;133;49.626;9.680;2023-04-16T02:19:39;8.50;;;6.43;;
297;SDS011;133;49.626;9.680;2023-04-16T02:22:05;10.97;;;6.90;;
297;SDS011;133;49.626;9.680;2023-04-16T02:24:31;6.87;;;6.20;;
297;SDS011;133;49.626;9.680;2023-04-16T02:26:57;9.40;;;6.57;;
297;SDS011;133;49.626;9.680;2023-04-16T02:29:22;9.20;;;7.93;;
297;SDS011;133;49.626;9.680;2023-04-16T02:31:48;7.33;;;6.17;;
297;SDS011;133;49.626;9.680;2023-04-16T02:34:13;11.07;;;7.70;;
297;SDS011;133;49.626;9.680;2023-04-16T02:36:39;11.03;;;7.93;;
297;SDS011;133;49.626;9.680;2023-04-16T02:39:05;10.37;;;7.73;;
297;SDS011;133;49.626;9.680;2023-04-16T02:41:31;12.23;;;8.63;;
297;SDS011;133;49.626;9.680;2023-04-16T02:43:56;14.20;;;8.83;;
297;SDS011;133;49.626;9.680;2023-04-16T02:46:22;13.43;;;8.67;;
297;SDS011;133;49.626;9.680;2023-04-16T02:48:47;10.50;;;8.17;;
297;SDS011;133;49.626;9.680;2023-04-16T02:51:13;11.57;;;8.63;;
297;SDS011;133;49.626;9.680;2023-04-16T02:53:39;13.80;;;9.07;;
297;SDS011;133;49.626;9.680;2023-04-16T02:56:05;12.50;;;8.50;;
297;SDS011;133;49.626;9.680;2023-04-16T02:58:30;9.83;;;7.80;;
297;SDS011;133;49.626;9.680;2023-04-16T03:00:56;11.20;;;8.50;;
297;SDS011;133;49.626;9.680;2023-04-16T03:03:22;11.67;;;8.20;;
297;SDS011;133;49.626;9.680;2023-04-16T03:05:47;10.53;;;7.83;;
297;SDS011;133;49.626;9.680;2023-04-16T03:08:13;13.47;;;8.90;;
297;SDS011;133;49.626;9.680;2023-04-16T03:10:40;10.77;;;8.07;;
297;SDS011;133;49.626;9.680;2023-04-16T03:13:05;10.77;;;7.90;;
297;SDS011;133;49.626;9.680;2023-04-16T03:15:31;11.37;;;7.63;;
297;SDS011;133;49.626;9.680;2023-04-16T03:17:57;9.37;;;7.73;;
297;SDS011;133;49.626;9.680;2023-04-16T03:20:23;9.73;;;7.27;;
297;SDS011;133;49.626;9.680;2023-04-16T03:22:49;8.90;;;7.10;;
297;SDS011;133;49.626;9.680;2023-04-16T03:25:16;13.00;;;8.90;;
297;SDS011;133;49.626;9.680;2023-04-16T03:27:42;9.33;;;6.83;;
297;SDS011;133;49.626;9.680;2023-04-16T03:30:18;13.53;;;8.33;;
297;SDS011;133;49.626;9.680;2023-04-16T03:32:44;12.00;;;8.13;;
297;SDS011;133;49.626;9.680;2023-04-16T03:35:10;11.50;;;8.60;;
297;SDS011;133;49.626;9.680;2023-04-16T03:37:36;9.53;;;7.17;;
297;SDS011;133;49.626;9.680;2023-04-16T03:40:05;9.83;;;6.97;;
297;SDS011;133;49.626;9.680;2023-04-16T03:42:34;10.60;;;7.33;;
297;SDS011;133;49.626;9.680;2023-04-16T03:45:00;14.83;;;8.20;;
297;SDS011;133;49.626;9.680;2023-04-16T03:47:26;10.17;;;7.37;;
297;SDS011;133;49.626;9.680;2023-04-16T03:49:51;8.13;;;6.50;;
297;SDS011;133;49.626;9.680;2023-04-16T03:52:17;10.70;;;7.87;;
297;SDS011;133;49.626;9.680;2023-04-16T03:54:42;12.50;;;9.27;;
297;SDS011;133;49.626;9.680;2023-04-16T03:57:08;10.87;;;7.90;;
297;SDS011;133;49.626;9.680;2023-04-16T03:59:33;9.97;;;6.83;;
297;SDS011;133;49.626;9.680;2023-04-16T04:01:59;11.90;;;8.70;;
297;SDS011;133;49.626;9.680;2023-04-16T04:04:25;11.20;;;8.67;;
297;SDS011;133;49.626;9.680;2023-04-16T04:06:51;13.60;;;10.13;;
297;SDS011;133;49.626;9.680;2023-04-16T04:09:16;15.13;;;9.83;;
297;SDS011;133;49.626;9.680;2023-04-16T04:11:42;15.73;;;11.10;;
297;SDS011;133;49.626;9.680;2023-04-16T04:14:07;14.90;;;9.83;;
297;SDS011;133;49.626;9.680;2023-04-16T04:16:33;19.00;;;11.40;;
297;SDS011;133;49.626;9.680;2023-04-16T04:18:59;13.63;;;9.57;;
297;SDS011;133;49.626;9.680;2023-04-16T04:21:28;16.13;;;11.40;;
297;SDS011;133;49.626;9.680;2023-04-16T04:23:54;20.47;;;11.50;;
297;SDS011;133;49.626;9.680;2023-04-16T04:26:19;21.87;;;12.07;;
297;SDS011;133;49.626;9.680;2023-04-16T04:28:45;18.20;;;11.47;;
297;SDS011;133;49.626;9.680;2023-04-16T04:31:11;15.93;;;11.60;;
297;SDS011;133;49.626;9.680;2023-04-16T04:33:36;19.73;;;12.53;;
297;SDS011;133;49.626;9.680;2023-04-16T04:36:02;18.20;;;12.83;;
297;SDS011;133;49.626;9.680;2023-04-16T04:38:28;17.83;;;11.20;;
297;SDS011;133;49.626;9.680;2023-04-16T04:40:54;16.40;;;12.00;;
297;SDS011;133;49.626;9.680;2023-04-16T04:43:20;20.80;;;12.20;;
297;SDS011;133;49.626;9.680;2023-04-16T04:45:45;18.40;;;12.73;;
297;SDS011;133;49.626;9.680;2023-04-16T04:48:13;19.23;;;12.87;;
297;SDS011;133;49.626;9.680;2023-04-16T04:50:39;17.97;;;11.90;;
297;SDS011;133;49.626;9.680;2023-04-16T04:53:05;17.10;;;11.33;;
297;SDS011;133;49.626;9.680;2023-04-16T04:55:37;17.10;;;11.57;;
297;SDS011;133;49.626;9.680;2023-04-16T04:58:03;20.27;;;13.10;;
297;SDS011;133;49.626;9.680;2023-04-16T05:00:30;22.23;;;13.40;;
297;SDS011;133;49.626;9.680;2023-04-16T05:02:56;26.63;;;15.70;;
297;SDS011;133;49.626;9.680;2023-04-16T05:05:22;20.17;;;12.83;;
297;SDS011;133;49.626;9.680;2023-04-16T05:07:48;19.20;;;12.50;;
297;SDS011;133;49.626;9.680;2023-04-16T05:10:13;17.37;;;12.53;;
297;SDS011;133;49.626;9.680;2023-04-16T05:12:39;19.47;;;13.37;;
297;SDS011;133;49.626;9.680;2023-04-16T05:15:05;24.30;;;14.33;;
297;SDS011;133;49.626;9.680;2023-04-16T05:17:31;20.57;;;14.97;;
297;SDS011;133;49.626;9.680;2023-04-16T05:19:57;24.60;;;14.13;;
297;SDS011;133;49.626;9.680;2023-04-16T05:22:22;20.00;;;14.30;;
297;SDS011;133;49.626;9.680;2023-04-16T05:24:48;24.00;;;14.77;;
297;SDS011;133;49.626;9.680;2023-04-16T05:27:13;22.67;;;15.37;;
297;SDS011;133;49.626;9.680;2023-04-16T05:29:39;23.57;;;14.80;;
297;SDS011;133;49.626;9.680;2023-04-16T05:32:05;23.60;;;15.27;;
297;SDS011;133;49.626;9.680;2023-04-16T05:34:30;22.07;;;14.67;;
297;SDS011;133;49.626;9.680;2023-04-16T05:36:56;22.47;;;14.93;;
297;SDS011;133;49.626;9.680;2023-04-16T05:39:22;28.87;;;15.50;;
297;SDS011;133;49.626;9.680;2023-04-16T05:41:47;23.87;;;15.27;;
297;SDS011;133;49.626;9.680;2023-04-16T05:44:13;24.90;;;16.00;;
297;SDS011;133;49.626;9.680;2023-04-16T05:46:39;26.47;;;17.90;;
297;SDS011;133;49.626;9.680;2023-04-16T05:49:05;21.83;;;14.03;;
297;SDS011;133;49.626;9.680;2023-04-16T05:51:30;22.47;;;14.20;;
297;SDS011;133;49.626;9.680;2023-04-16T05:53:56;30.37;;;17.47;;
297;SDS011;133;49.626;9.680;2023-04-16T05:56:21;29.33;;;17.77;;
297;SDS011;133;49.626;9.680;2023-04-16T05:58:47;25.70;;;15.40;;
297;SDS011;133;49.626;9.680;2023-04-16T06:01:13;24.00;;;16.47;;
297;SDS011;133;49.626;9.680;2023-04-16T06:03:38;23.47;;;14.67;;
297;SDS011;133;49.626;9.680;2023-04-16T06:06:04;25.87;;;17.60;;
297;SDS011;133;49.626;9.680;2023-04-16T06:08:30;24.00;;;15.77;;
297;SDS011;133;49.626;9.680;2023-04-16T06:10:56;22.03;;;14.67;;
297;SDS011;133;49.626;9.680;2023-04-16T06:13:21;24.77;;;15.70;;
297;SDS011;133;49.626;9.680;2023-04-16T06:15:47;20.50;;;14.53;;
297;SDS011;133;49.626;9.680;2023-04-16T06:18:12;23.20;;;15.80;;
297;SDS011;133;49.626;9.680;2023-04-16T06:20:38;25.13;;;16.67;;
297;SDS011;133;49.626;9.680;2023-04-16T06:23:04;21.23;;;14.50;;
297;SDS011;133;49.626;9.680;2023-04-16T06:25:29;23.90;;;14.93;;
297;SDS011;133;49.626;9.680;2023-04-16T06:27:55;19.07;;;13.33;;
297;SDS011;133;49.626;9.680;2023-04-16T06:30:20;24.40;;;15.53;;
297;SDS011;133;49.626;9.680;2023-04-16T06:32:46;20.20;;;14.30;;
297;SDS011;133;49.626;9.680;2023-04-16T06:35:13;20.50;;;13.47;;
297;SDS011;133;49.626;9.680;2023-04-16T06:37:38;23.10;;;14.10;;
297;SDS011;133;49.626;9.680;2023-04-16T06:40:04;21.20;;;13.70;;
297;SDS011;133;49.626;9.680;2023-04-16T06:42:30;22.03;;;14.17;;
297;SDS011;133;49.626;9.680;2023-04-16T06:44:56;24.60;;;15.10;;
297;SDS011;133;49.626;9.680;2023-04-16T06:47:21;21.40;;;15.07;;
297;SDS011;133;49.626;9.680;2023-04-16T06:49:47;22.77;;;13.90;;
297;SDS011;133;49.626;9.680;2023-04-16T06:52:12;19.30;;;13.20;;
297;SDS011;133;49.626;9.680;2023-04-16T06:54:38;24.10;;;14.57;;
297;SDS011;133;49.626;9.680;2023-04-16T06:57:04;20.43;;;13.83;;
297;SDS011;133;49.626;9.680;2023-04-16T06:59:30;20.30;;;13.30;;
297;SDS011;133;49.626;9.680;2023-04-16T07:01:55;17.57;;;12.63;;
297;SDS011;133;49.626;9.680;2023-04-16T07:04:22;17.80;;;12.80;;
297;SDS011;133;49.626;9.680;2023-04-16T07:06:47;20.80;;;12.70;;
297;SDS011;133;49.626;9.680;2023-04-16T07:09:13;17.90;;;11.80;;
297;SDS011;133;49.626;9.680;2023-04-16T07:11:39;22.77;;;13.90;;
297;SDS011;133;49.626;9.680;2023-04-16T07:14:05;17.90;;;12.73;;
297;SDS011;133;49.626;9.680;2023-04-16T07:16:31;23.17;;;13.43;;
297;SDS011;133;49.626;9.680;2023-04-16T07:18:57;22.63;;;13.67;;
297;SDS011;133;49.626;9.680;2023-04-16T07:21:22;16.50;;;11.60;;
297;SDS011;133;49.626;9.680;2023-04-16T07:23:48;17.50;;;13.13;;
297;SDS011;133;49.626;9.680;2023-04-16T07:26:13;15.50;;;11.20;;
297;SDS011;133;49.626;9.680;2023-04-16T07:28:39;16.20;;;11.70;;
297;SDS011;133;49.626;9.680;2023-04-16T07:31:05;17.63;;;11.07;;
297;SDS011;133;49.626;9.680;2023-04-16T07:33:30;12.07;;;9.43;;
297;SDS011;133;49.626;9.680;2023-04-16T07:35:56;15.13;;;11.50;;
297;SDS011;133;49.626;9.680;2023-04-16T07:38:21;16.83;;;12.97;;
297;SDS011;133;49.626;9.680;2023-04-16T07:40:47;15.47;;;10.50;;
297;SDS011;133;49.626;9.680;2023-04-16T07:43:13;18.00;;;11.73;;
297;SDS011;133;49.626;9.680;2023-04-16T07:45:40;13.63;;;9.90;;
297;SDS011;133;49.626;9.680;2023-04-16T07:48:06;14.93;;;10.73;;
297;SDS011;133;49.626;9.680;2023-04-16T07:50:31;17.77;;;13.10;;
297;SDS011;133;49.626;9.680;2023-04-16T07:52:57;16.83;;;10.50;;
297;SDS011;133;49.626;9.680;2023-04-16T07:55:23;14.60;;;10.50;;
297;SDS011;133;49.626;9.680;2023-04-16T07:57:48;13.27;;;10.07;;
297;SDS011;133;49.626;9.680;2023-04-16T08:00:14;11.53;;;9.57;;
297;SDS011;133;49.626;9.680;2023-04-16T08:02:42;13.83;;;9.87;;
297;SDS011;133;49.626;9.680;2023-04-16T08:05:09;15.37;;;11.30;;
297;SDS011;133;49.626;9.680;2023-04-16T08:07:38;11.73;;;9.47;;
297;SDS011;133;49.626;9.680;2023-04-16T08:10:03;16.27;;;9.37;;
297;SDS011;133;49.626;9.680;2023-04-16T08:12:29;10.57;;;8.87;;
297;SDS011;133;49.626;9.680;2023-04-16T08:14:55;14.57;;;10.40;;
297;SDS011;133;49.626;9.680;2023-04-16T08:17:20;14.60;;;10.93;;
297;SDS011;133;49.626;9.680;2023-04-16T08:19:46;14.47;;;10.40;;
297;SDS011;133;49.626;9.680;2023-04-16T08:22:12;13.70;;;10.40;;
297;SDS011;133;49.626;9.680;2023-04-16T08:24:38;10.37;;;8.30;;
297;SDS011;133;49.626;9.680;2023-04-16T08:27:04;10.87;;;8.90;;
297;SDS011;133;49.626;9.680;2023-04-16T08:29:29;14.90;;;10.73;;
297;SDS011;133;49.626;9.680;2023-04-16T08:31:55;14.77;;;10.70;;
297;SDS011;133;49.626;9.680;2023-04-16T08:34:21;12.43;;;9.80;;
297;SDS011;133;49.626;9.680;2023-04-16T08:36:47;12.47;;;9.70;;
297;SDS011;133;49.626;9.680;2023-04-16T08:39:12;10.50;;;8.37;;
297;SDS011;133;49.626;9.680;2023-04-16T08:41:40;11.87;;;8.63;;
297;SDS011;133;49.626;9.680;2023-04-16T08:44:08;9.93;;;8.30;;
297;SDS011;133;49.626;9.680;2023-04-16T08:46:39;13.17;;;9.00;;
297;SDS011;133;49.626;9.680;2023-04-16T08:49:05;10.00;;;8.33;;
297;SDS011;133;49.626;9.680;2023-04-16T08:51:35;10.53;;;8.73;;
297;SDS011;133;49.626;9.680;2023-04-16T08:54:03;14.07;;;9.80;;
297;SDS011;133;49.626;9.680;2023-04-16T08:56:34;9.80;;;8.20;;
297;SDS011;133;49.626;9.680;2023-04-16T08:59:00;13.30;;;9.97;;
297;SDS011;133;49.626;9.680;2023-04-16T09:01:29;11.93;;;9.20;;
297;SDS011;133;49.626;9.680;2023-04-16T09:03:57;11.83;;;9.20;;
297;SDS011;133;49.626;9.680;2023-04-16T09:06:26;12.50;;;9.03;;
297;SDS011;133;49.626;9.680;2023-04-16T09:08:52;9.07;;;8.10;;
297;SDS011;133;49.626;9.680;2023-04-16T09:11:19;12.20;;;9.20;;
297;SDS011;133;49.626;9.680;2023-04-16T09:13:45;8.00;;;7.07;;
297;SDS011;133;49.626;9.680;2023-04-16T09:16:11;12.87;;;9.03;;
297;SDS011;133;49.626;9.680;2023-04-16T09:18:38;9.63;;;7.67;;
297;SDS011;133;49.626;9.680;2023-04-16T09:21:03;7.17;;;6.80;;
297;SDS011;133;49.626;9.680;2023-04-16T09:23:31;7.70;;;6.87;;
297;SDS011;133;49.626;9.680;2023-04-16T09:25:57;6.83;;;6.43;;
297;SDS011;133;49.626;9.680;2023-04-16T09:28:40;8.00;;;6.27;;
297;SDS011;133;49.626;9.680;2023-04-16T09:31:17;8.03;;;6.47;;
297;SDS011;133;49.626;9.680;2023-04-16T09:33:59;8.00;;;6.67;;
297;SDS011;133;49.626;9.680;2023-04-16T09:36:26;8.63;;;6.80;;
297;SDS011;133;49.626;9.680;2023-04-16T09:38:52;7.40;;;6.77;;
297;SDS011;133;49.626;9.680;2023-04-16T09:41:19;9.53;;;7.77;;
297;SDS011;133;49.626;9.680;2023-04-16T09:44:03;7.27;;;6.70;;
297;SDS011;133;49.626;9.680;2023-04-16T09:46:29;7.97;;;6.80;;
297;SDS011;133;49.626;9.680;2023-04-16T09:48:57;6.83;;;6.00;;
297;SDS011;133;49.626;9.680;2023-04-16T09:51:43;8.60;;;6.90;;
297;SDS011;133;49.626;9.680;2023-04-16T09:54:10;11.10;;;8.27;;
297;SDS011;133;49.626;9.680;2023-04-16T09:56:40;6.50;;;5.83;;
297;SDS011;133;49.626;9.680;2023-04-16T09:59:07;7.63;;;6.27;;
297;SDS011;133;49.626;9.680;2023-04-16T10:01:41;7.13;;;6.60;;
297;SDS011;133;49.626;9.680;2023-04-16T10:04:07;7.90;;;6.47;;
297;SDS011;133;49.626;9.680;2023-04-16T10:06:33;7.20;;;6.17;;
297;SDS011;133;49.626;9.680;2023-04-16T10:08:58;6.17;;;5.87;;
297;SDS011;133;49.626;9.680;2023-04-16T10:11:24;5.80;;;5.57;;
297;SDS011;133;49.626;9.680;2023-04-16T10:13:50;7.07;;;6.40;;
297;SDS011;133;49.626;9.680;2023-04-16T10:16:16;6.30;;;5.97;;
297;SDS011;133;49.626;9.680;2023-04-16T10:18:42;7.40;;;6.23;;
297;SDS011;133;49.626;9.680;2023-04-16T10:21:09;6.17;;;5.83;;
297;SDS011;133;49.626;9.680;2023-04-16T10:23:37;7.10;;;6.23;;
297;SDS011;133;49.626;9.680;2023-04-16T10:26:03;6.20;;;5.30;;
297;SDS011;133;49.626;9.680;2023-04-16T10:28:29;6.50;;;5.43;;
297;SDS011;133;49.626;9.680;2023-04-16T10:30:56;7.50;;;6.57;;
297;SDS011;133;49.626;9.680;2023-04-16T10:33:24;7.93;;;6.57;;
297;SDS011;133;49.626;9.680;2023-04-16T10:35:52;6.80;;;5.87;;
297;SDS011;133;49.626;9.680;2023-04-16T10:38:37;5.90;;;5.50;;
297;SDS011;133;49.626;9.680;2023-04-16T10:41:05;6.23;;;5.93;;
297;SDS011;133;49.626;9.680;2023-04-16T10:43:32;7.13;;;5.80;;
297;SDS011;133;49.626;9.680;2023-04-16T10:46:22;8.93;;;6.97;;
297;SDS011;133;49.626;9.680;2023-04-16T10:48:59;6.53;;;5.97;;
297;SDS011;133;49.626;9.680;2023-04-16T10:51:31;7.60;;;6.60;;
297;SDS011;133;49.626;9.680;2023-04-16T10:56:32;12.00;;;7.43;;
297;SDS011;133;49.626;9.680;2023-04-16T10:58:59;7.90;;;6.60;;
297;SDS011;133;49.626;9.680;2023-04-16T11:01:41;6.60;;;6.00;;
297;SDS011;133;49.626;9.680;2023-04-16T11:12:19;6.53;;;6.07;;
297;SDS011;133;49.626;9.680;2023-04-16T11:14:47;6.00;;;5.73;;
297;SDS011;133;49.626;9.680;2023-04-16T11:17:17;7.03;;;6.33;;
297;SDS011;133;49.626;9.680;2023-04-16T11:19:44;8.03;;;6.57;;
297;SDS011;133;49.626;9.680;2023-04-16T11:22:13;6.63;;;5.80;;
297;SDS011;133;49.626;9.680;2023-04-16T11:24:41;8.40;;;5.90;;
297;SDS011;133;49.626;9.680;2023-04-16T11:27:08;8.30;;;6.90;;
297;SDS011;133;49.626;9.680;2023-04-16T11:29:35;5.40;;;5.10;;
297;SDS011;133;49.626;9.680;2023-04-16T11:32:01;5.60;;;5.30;;
297;SDS011;133;49.626;9.680;2023-04-16T11:34:27;6.13;;;5.63;;
297;SDS011;133;49.626;9.680;2023-04-16T11:36:53;5.97;;;5.37;;
297;SDS011;133;49.626;9.680;2023-04-16T11:39:18;7.53;;;6.20;;
297;SDS011;133;49.626;9.680;2023-04-16T11:41:45;6.07;;;5.40;;
297;SDS011;133;49.626;9.680;2023-04-16T11:46:49;8.60;;;7.13;;
297;SDS011;133;49.626;9.680;2023-04-16T11:49:16;7.03;;;6.63;;
297;SDS011;133;49.626;9.680;2023-04-16T11:51:45;7.43;;;6.43;;
297;SDS011;133;49.626;9.680;2023-04-16T11:54:21;6.43;;;5.93;;
297;SDS011;133;49.626;9.680;2023-04-16T11:56:48;7.53;;;5.67;;
297;SDS011;133;49.626;9.680;2023-04-16T11:59:16;6.80;;;6.30;;
297;SDS011;133;49.626;9.680;2023-04-16T12:01:48;6.10;;;5.60;;
297;SDS011;133;49.626;9.680;2023-04-16T12:04:15;6.80;;;6.37;;
297;SDS011;133;49.626;9.680;2023-04-16T12:09:32;7.93;;;7.40;;
297;SDS011;133;49.626;9.680;2023-04-16T12:11:59;9.00;;;7.00;;
297;SDS011;133;49.626;9.680;2023-04-16T12:14:25;7.40;;;6.60;;
297;SDS011;133;49.626;9.680;2023-04-16T12:16:51;25.60;;;15.50;;
297;SDS011;133;49.626;9.680;2023-04-16T12:19:16;13.90;;;9.97;;
297;SDS011;133;49.626;9.680;2023-04-16T12:21:43;15.30;;;11.00;;
297;SDS011;133;49.626;9.680;2023-04-16T12:24:11;13.93;;;10.07;;
297;SDS011;133;49.626;9.680;2023-04-16T12:26:51;12.73;;;10.20;;
297;SDS011;133;49.626;9.680;2023-04-16T12:29:23;12.43;;;9.50;;
297;SDS011;133;49.626;9.680;2023-04-16T12:31:50;9.57;;;8.00;;
297;SDS011;133;49.626;9.680;2023-04-16T12:34:17;9.70;;;8.73;;
297;SDS011;133;49.626;9.680;2023-04-16T12:36:44;8.23;;;7.30;;
297;SDS011;133;49.626;9.680;2023-04-16T12:39:12;9.47;;;7.83;;
297;SDS011;133;49.626;9.680;2023-04-16T12:41:39;9.37;;;6.93;;
297;SDS011;133;49.626;9.680;2023-04-16T12:44:07;9.17;;;7.37;;
297;SDS011;133;49.626;9.680;2023-04-16T12:46:42;10.20;;;8.20;;
297;SDS011;133;49.626;9.680;2023-04-16T12:49:09;7.50;;;7.10;;
297;SDS011;133;49.626;9.680;2023-04-16T12:51:35;9.83;;;8.27;;
297;SDS011;133;49.626;9.680;2023-04-16T12:54:03;8.47;;;7.37;;
297;SDS011;133;49.626;9.680;2023-04-16T12:56:29;9.13;;;7.73;;
297;SDS011;133;49.626;9.680;2023-04-16T12:58:55;11.37;;;8.40;;
297;SDS011;133;49.626;9.680;2023-04-16T13:01:21;7.73;;;7.33;;
297;SDS011;133;49.626;9.680;2023-04-16T13:03:47;9.00;;;7.43;;
297;SDS011;133;49.626;9.680;2023-04-16T13:06:13;8.87;;;8.00;;
297;SDS011;133;49.626;9.680;2023-04-16T13:08:40;9.47;;;7.93;;
297;SDS011;133;49.626;9.680;2023-04-16T13:11:10;9.83;;;8.20;;
297;SDS011;133;49.626;9.680;2023-04-16T13:13:36;14.30;;;9.27;;
297;SDS011;133;49.626;9.680;2023-04-16T13:16:02;9.13;;;7.60;;
297;SDS011;133;49.626;9.680;2023-04-16T13:18:32;9.43;;;8.27;;
297;SDS011;133;49.626;9.680;2023-04-16T13:20:58;14.10;;;10.37;;
297;SDS011;133;49.626;9.680;2023-04-16T13:23:24;11.20;;;9.87;;
297;SDS011;133;49.626;9.680;2023-04-16T13:25:50;8.73;;;8.10;;
297;SDS011;133;49.626;9.680;2023-04-16T13:28:15;9.23;;;8.80;;
297;SDS011;133;49.626;9.680;2023-04-16T13:30:41;9.70;;;8.30;;
297;SDS011;133;49.626;9.680;2023-04-16T13:33:07;8.80;;;8.30;;
297;SDS011;133;49.626;9.680;2023-04-16T13:35:33;10.70;;;8.80;;
297;SDS011;133;49.626;9.680;2023-04-16T13:37:59;12.00;;;9.30;;
297;SDS011;133;49.626;9.680;2023-04-16T13:40:24;11.20;;;8.97;;
297;SDS011;133;49.626;9.680;2023-04-16T13:42:50;10.10;;;8.47;;
297;SDS011;133;49.626;9.680;2023-04-16T13:45:16;9.40;;;8.40;;
297;SDS011;133;49.626;9.680;2023-04-16T13:47:41;12.17;;;9.30;;
297;SDS011;133;49.626;9.680;2023-04-16T13:50:07;11.50;;;9.20;;
297;SDS011;133;49.626;9.680;2023-04-16T13:52:33;10.97;;;9.27;;
297;SDS011;133;49.626;9.680;2023-04-16T13:55:00;9.00;;;8.30;;
297;SDS011;133;49.626;9.680;2023-04-16T13:57:26;12.40;;;8.53;;
297;SDS011;133;49.626;9.680;2023-04-16T13:59:52;9.83;;;8.90;;
297;SDS011;133;49.626;9.680;2023-04-16T14:02:18;10.43;;;8.87;;
297;SDS011;133;49.626;9.680;2023-04-16T14:04:44;11.13;;;9.60;;
297;SDS011;133;49.626;9.680;2023-04-16T14:07:10;9.70;;;8.43;;
297;SDS011;133;49.626;9.680;2023-04-16T14:09:36;9.03;;;8.60;;
297;SDS011;133;49.626;9.680;2023-04-16T14:12:01;9.37;;;8.93;;
297;SDS011;133;49.626;9.680;2023-04-16T14:14:27;10.83;;;9.10;;
297;SDS011;133;49.626;9.680;2023-04-16T14:16:53;9.80;;;8.67;;
297;SDS011;133;49.626;9.680;2023-04-16T14:19:19;12.73;;;9.27;;
297;SDS011;133;49.626;9.680;2023-04-16T14:21:45;10.73;;;8.47;;
297;SDS011;133;49.626;9.680;2023-04-16T14:24:10;11.47;;;8.80;;
297;SDS011;133;49.626;9.680;2023-04-16T14:26:36;11.20;;;8.90;;
297;SDS011;133;49.626;9.680;2023-04-16T14:29:02;10.50;;;8.57;;
297;SDS011;133;49.626;9.680;2023-04-16T14:31:27;10.87;;;9.23;;
297;SDS011;133;49.626;9.680;2023-04-16T14:33:53;11.87;;;10.03;;
297;SDS011;133;49.626;9.680;2023-04-16T14:36:20;13.63;;;9.70;;
297;SDS011;133;49.626;9.680;2023-04-16T14:38:48;11.90;;;9.90;;
297;SDS011;133;49.626;9.680;2023-04-16T14:41:14;10.57;;;9.77;;
297;SDS011;133;49.626;9.680;2023-04-16T14:43:40;10.00;;;9.27;;
297;SDS011;133;49.626;9.680;2023-04-16T14:46:05;14.10;;;10.40;;
297;SDS011;133;49.626;9.680;2023-04-16T14:48:31;13.70;;;10.33;;
297;SDS011;133;49.626;9.680;2023-04-16T14:50:57;13.97;;;10.97;;
297;SDS011;133;49.626;9.680;2023-04-16T14:53:22;13.90;;;11.57;;
297;SDS011;133;49.626;9.680;2023-04-16T14:55:49;9.73;;;8.53;;
297;SDS011;133;49.626;9.680;2023-04-16T14:58:16;11.50;;;9.40;;
297;SDS011;133;49.626;9.680;2023-04-16T15:00:41;8.23;;;7.73;;
297;SDS011;133;49.626;9.680;2023-04-16T15:03:07;11.17;;;8.27;;
297;SDS011;133;49.626;9.680;2023-04-16T15:05:33;12.03;;;8.60;;
297;SDS011;133;49.626;9.680;2023-04-16T15:07:59;11.70;;;9.40;;
297;SDS011;133;49.626;9.680;2023-04-16T15:10:26;10.17;;;8.90;;
297;SDS011;133;49.626;9.680;2023-04-16T15:12:51;12.63;;;9.57;;
297;SDS011;133;49.626;9.680;2023-04-16T15:15:17;9.97;;;8.90;;
297;SDS011;133;49.626;9.680;2023-04-16T15:17:43;9.70;;;7.63;;
297;SDS011;133;49.626;9.680;2023-04-16T15:20:09;10.67;;;8.60;;
297;SDS011;133;49.626;9.680;2023-04-16T15:22:35;13.00;;;9.87;;
297;SDS011;133;49.626;9.680;2023-04-16T15:25:02;11.80;;;10.10;;
297;SDS011;133;49.626;9.680;2023-04-16T15:27:28;12.73;;;9.23;;
297;SDS011;133;49.626;9.680;2023-04-16T15:29:53;10.10;;;8.80;;
297;SDS011;133;49.626;9.680;2023-04-16T15:32:19;10.97;;;8.80;;
297;SDS011;133;49.626;9.680;2023-04-16T15:34:45;12.57;;;9.80;;
297;SDS011;133;49.626;9.680;2023-04-16T15:37:11;15.37;;;11.03;;
297;SDS011;133;49.626;9.680;2023-04-16T15:39:37;12.90;;;10.00;;
297;SDS011;133;49.626;9.680;2023-04-16T15:42:03;9.73;;;8.50;;
297;SDS011;133;49.626;9.680;2023-04-16T15:44:30;9.20;;;8.50;;